Time;durP1;ratioP1;P1;durP2;ratioP2;P2;SDS_P1;SDS_P2;PMS_P1;PMS_P2;Temp;Humidity;BMP_temperature;BMP_pressure;BME280_temperature;BME280_humidity;BME280_pressure;Samples;Min_cycle;Max_cycle;Signal;HPM_P1;HPM_P2
2021/01/11 00:00:17;;;;;;;19.42;13.90;;;;;;;-1.17;91.96;101032.63;646115;219;32665;-74
2021/01/11 00:02:46;;;;;;;21.37;14.93;;;;;;;-0.91;91.62;101023.66;632449;222;33026;-75
2021/01/11 00:05:14;;;;;;;18.67;12.67;;;;;;;-1.55;91.56;101025.75;645834;219;23713;-74
2021/01/11 00:07:42;;;;;;;18.77;13.40;;;;;;;-1.06;91.46;101020.34;633124;220;32850;-74
2021/01/11 00:10:10;;;;;;;21.82;14.58;;;;;;;-1.00;89.88;101010.75;635637;220;32783;-76
2021/01/11 00:12:40;;;;;;;19.80;12.60;;;;;;;-1.58;91.97;101018.20;640229;221;24830;-75
2021/01/11 00:15:10;;;;;;;18.52;13.10;;;;;;;-1.42;90.09;101021.94;627183;221;33033;-74
2021/01/11 00:17:38;;;;;;;21.77;14.38;;;;;;;-1.48;91.11;101022.58;633985;221;32777;-74
2021/01/11 00:20:07;;;;;;;18.73;13.00;;;;;;;-2.07;92.65;101028.63;646876;220;23673;-75
2021/01/11 00:22:36;;;;;;;20.20;14.35;;;;;;;-1.65;92.85;101028.22;648557;217;32598;-74
2021/01/11 00:25:04;;;;;;;19.00;13.20;;;;;;;-1.50;91.89;101026.46;636925;221;33699;-74
2021/01/11 00:27:32;;;;;;;17.13;12.30;;;;;;;-2.04;93.82;101038.73;659236;217;24819;-74
2021/01/11 00:29:59;;;;;;;20.20;13.40;;;;;;;-1.62;92.98;101033.22;644810;217;32605;-74
2021/01/11 00:32:27;;;;;;;16.62;12.28;;;;;;;-1.43;92.42;101026.64;646027;217;32943;-74
2021/01/11 00:34:55;;;;;;;15.90;12.30;;;;;;;-2.10;94.18;101032.55;652779;217;23654;-75
2021/01/11 00:37:23;;;;;;;20.62;13.70;;;;;;;-1.67;93.93;101042.73;650348;217;32674;-74
2021/01/11 00:39:53;;;;;;;19.70;13.90;;;;;;;-1.48;93.17;101040.00;635701;222;33116;-74
2021/01/11 00:42:19;;;;;;;19.52;14.80;;;;;;;-1.38;92.28;101038.00;645781;218;32572;-74
2021/01/11 00:44:48;;;;;;;23.30;13.17;;;;;;;-2.03;94.67;101048.04;651706;218;23682;-74
2021/01/11 00:47:15;;;;;;;20.43;14.53;;;;;;;-1.81;94.21;101054.19;646062;218;32838;-74
2021/01/11 00:49:43;;;;;;;20.02;14.45;;;;;;;-1.70;93.81;101050.45;645071;218;32561;-74
2021/01/11 00:52:11;;;;;;;20.03;11.87;;;;;;;-2.02;94.26;101045.88;645768;218;23661;-74
2021/01/11 00:54:39;;;;;;;22.60;15.05;;;;;;;-1.59;93.54;101046.70;641743;221;32675;-74
2021/01/11 00:57:08;;;;;;;21.25;15.30;;;;;;;-1.55;92.88;101046.16;649502;219;32553;-74
2021/01/11 00:59:36;;;;;;;22.33;13.63;;;;;;;-2.18;94.91;101051.03;646904;218;23655;-74
2021/01/11 01:02:04;;;;;;;22.05;16.30;;;;;;;-1.63;93.92;101057.05;634856;222;32729;-74
2021/01/11 01:04:32;;;;;;;24.30;13.97;;;;;;;-2.05;95.26;101063.81;636469;222;23687;-74
2021/01/11 01:07:02;;;;;;;21.02;15.55;;;;;;;-1.69;93.78;101058.50;649620;217;32585;-74
2021/01/11 01:09:30;;;;;;;25.60;17.48;;;;;;;-1.52;92.76;101049.91;633595;220;32763;-74
2021/01/11 01:11:58;;;;;;;21.03;13.13;;;;;;;-1.93;94.62;101069.84;648334;217;23653;-74
2021/01/11 01:14:26;;;;;;;22.90;15.80;;;;;;;-1.95;95.25;101063.13;639475;222;32832;-74
2021/01/11 01:16:54;;;;;;;21.70;14.68;;;;;;;-2.14;96.94;101075.09;634743;222;32731;-74
2021/01/11 01:19:22;;;;;;;21.40;12.17;;;;;;;-2.39;98.17;101075.41;650330;217;23660;-74
2021/01/11 01:21:50;;;;;;;19.92;13.78;;;;;;;-2.38;98.81;101079.62;649182;218;32607;-74
2021/01/11 01:24:18;;;;;;;19.48;13.68;;;;;;;-2.46;98.82;101076.43;632412;222;32780;-75
2021/01/11 01:26:46;;;;;;;16.70;11.50;;;;;;;-2.79;99.73;101071.80;647425;217;23984;-74
2021/01/11 01:29:14;;;;;;;18.07;12.47;;;;;;;-2.72;100.00;101070.75;644531;217;43326;-74
2021/01/11 01:31:42;;;;;;;19.27;13.50;;;;;;;-2.66;100.00;101068.50;651557;217;32619;-74
2021/01/11 01:34:10;;;;;;;19.67;12.47;;;;;;;-2.76;99.74;101061.09;660598;217;24764;-74
2021/01/11 01:36:38;;;;;;;18.67;12.88;;;;;;;-2.47;99.89;101060.76;644494;217;32609;-75
2021/01/11 01:39:06;;;;;;;17.82;12.30;;;;;;;-2.36;99.41;101064.30;644532;217;32690;-74
2021/01/11 01:41:34;;;;;;;16.00;11.40;;;;;;;-2.61;98.95;101067.93;656153;217;27831;-74
2021/01/11 01:44:02;;;;;;;16.97;11.60;;;;;;;-2.25;98.23;101064.80;646141;217;32592;-74
2021/01/11 01:46:30;;;;;;;19.17;12.95;;;;;;;-2.17;97.00;101060.34;652552;217;32648;-74
2021/01/11 01:48:58;;;;;;;17.07;11.43;;;;;;;-2.67;98.49;101065.53;658543;217;23652;-75
2021/01/11 01:51:27;;;;;;;19.48;12.82;;;;;;;-2.28;97.64;101067.44;633043;217;32778;-74
2021/01/11 01:53:54;;;;;;;15.95;12.15;;;;;;;-2.06;96.92;101071.51;648083;217;32617;-75
2021/01/11 01:56:22;;;;;;;18.93;12.70;;;;;;;-2.40;97.69;101071.16;655762;217;23707;-74
2021/01/11 01:58:50;;;;;;;18.40;12.98;;;;;;;-2.25;97.38;101060.58;655827;217;32662;-74
2021/01/11 02:01:19;;;;;;;18.27;12.45;;;;;;;-2.15;96.28;101057.30;639887;221;32936;-75
2021/01/11 02:03:48;;;;;;;18.75;13.20;;;;;;;-2.14;96.21;101062.35;623343;223;33283;-75
2021/01/11 02:06:15;;;;;;;16.57;11.00;;;;;;;-2.58;97.64;101064.02;637830;222;23737;-75
2021/01/11 02:08:47;;;;;;;17.62;12.10;;;;;;;-2.15;95.67;101057.30;633439;222;32799;-74
2021/01/11 02:11:15;;;;;;;18.07;12.30;;;;;;;-1.76;95.12;101055.75;641704;218;32614;-74
2021/01/11 02:13:54;;;;;;;17.77;11.20;;;;;;;-2.31;95.35;101053.53;633646;221;25829;-74
2021/01/11 02:16:24;;;;;;;17.05;11.90;;;;;;;-2.09;94.78;101060.97;636605;222;32767;-74
2021/01/11 02:18:53;;;;;;;19.40;12.85;;;;;;;-1.87;93.62;101054.35;639357;222;32870;-74
2021/01/11 02:21:31;;;;;;;17.10;11.07;;;;;;;-2.62;95.42;101057.36;647148;222;23724;-75
2021/01/11 02:24:33;;;;;;;19.33;12.93;;;;;;;-2.14;93.37;101057.70;640326;221;32806;-74
2021/01/11 02:27:06;;;;;;;18.65;12.82;;;;;;;-2.14;92.78;101050.89;640430;221;32806;-74
2021/01/11 02:29:40;;;;;;;19.43;12.27;;;;;;;-2.89;94.29;101058.91;640887;221;23669;-75
2021/01/11 02:32:08;;;;;;;20.45;13.48;;;;;;;-2.42;94.35;101068.66;633578;222;33041;-75
2021/01/11 02:34:36;;;;;;;18.55;13.55;;;;;;;-2.32;94.18;101067.14;636933;222;32793;-75
2021/01/11 02:37:04;;;;;;;17.00;10.77;;;;;;;-2.89;96.99;101078.82;638017;222;23697;-74
2021/01/11 02:39:31;;;;;;;19.25;13.10;;;;;;;-2.43;96.01;101079.72;633581;222;33377;-75
2021/01/11 02:41:59;;;;;;;20.50;13.80;;;;;;;-2.55;95.85;101073.68;635304;221;32780;-74
2021/01/11 02:44:28;;;;;;;18.13;12.50;;;;;;;-2.89;96.46;101069.08;640058;221;24079;-74
2021/01/11 02:46:56;;;;;;;17.32;12.35;;;;;;;-2.92;98.11;101081.89;636690;222;32835;-74
2021/01/11 02:49:25;;;;;;;17.93;12.57;;;;;;;-3.06;98.16;101076.70;647288;219;43292;-76
2021/01/11 02:51:58;;;;;;;18.67;11.50;;;;;;;-3.18;99.14;101080.81;642190;221;24788;-74
2021/01/11 02:54:26;;;;;;;18.37;12.68;;;;;;;-3.04;99.30;101072.41;635915;220;32819;-74
2021/01/11 02:56:54;;;;;;;17.67;12.28;;;;;;;-2.89;99.11;101069.08;637626;221;32764;-77
2021/01/11 02:59:23;;;;;;;15.17;11.17;;;;;;;-3.15;99.10;101076.08;641841;221;23725;-74
2021/01/11 03:01:51;;;;;;;18.10;12.30;;;;;;;-3.19;98.79;101074.06;637683;221;32809;-74
2021/01/11 03:04:21;;;;;;;17.70;12.35;;;;;;;-3.18;99.23;101071.08;637902;221;32775;-75
2021/01/11 03:06:56;;;;;;;19.00;11.70;;;;;;;-3.47;100.00;101070.05;636344;222;23676;-74
2021/01/11 03:09:24;;;;;;;19.90;12.93;;;;;;;-3.25;99.66;101074.19;651502;217;32633;-74
2021/01/11 03:11:52;;;;;;;22.87;14.28;;;;;;;-3.02;99.10;101072.37;634643;222;32770;-74
2021/01/11 03:14:20;;;;;;;20.70;11.60;;;;;;;-3.38;100.00;101062.22;639128;222;23672;-74
2021/01/11 03:16:48;;;;;;;21.15;13.60;;;;;;;-2.95;99.45;101063.72;649471;217;32608;-74
2021/01/11 03:19:16;;;;;;;21.57;14.30;;;;;;;-2.82;99.55;101060.41;639570;222;32840;-74
2021/01/11 03:21:44;;;;;;;22.77;13.37;;;;;;;-3.12;99.92;101071.75;639102;222;23662;-74
2021/01/11 03:24:12;;;;;;;21.57;13.90;;;;;;;-2.95;99.35;101069.25;638980;222;32813;-74
2021/01/11 03:26:40;;;;;;;21.62;13.95;;;;;;;-2.91;98.33;101055.56;648959;218;32559;-74
2021/01/11 03:29:07;;;;;;;17.83;13.03;;;;;;;-2.73;98.15;101049.99;644106;218;43242;-74
2021/01/11 03:31:35;;;;;;;19.03;11.70;;;;;;;-3.03;99.02;101052.45;638747;222;27326;-74
2021/01/11 03:34:03;;;;;;;20.77;13.80;;;;;;;-2.63;97.96;101045.06;641610;222;32758;-74
2021/01/11 03:36:31;;;;;;;19.57;13.15;;;;;;;-2.62;96.90;101040.37;641371;220;32812;-74
2021/01/11 03:38:59;;;;;;;20.80;13.40;;;;;;;-2.32;95.93;101031.05;623405;226;32990;-74
2021/01/11 03:41:27;;;;;;;15.73;10.80;;;;;;;-2.99;96.79;101034.13;643556;219;23685;-74
2021/01/11 03:43:55;;;;;;;17.80;12.40;;;;;;;-2.51;96.25;101029.46;637704;221;32777;-74
2021/01/11 03:46:23;;;;;;;17.62;11.90;;;;;;;-2.46;94.53;101021.24;639156;221;32779;-74
2021/01/11 03:48:51;;;;;;;16.80;10.77;;;;;;;-3.02;95.75;101027.84;645540;220;23673;-75
2021/01/11 03:51:19;;;;;;;18.80;12.63;;;;;;;-2.54;95.32;101020.61;638908;222;32777;-74
2021/01/11 03:53:47;;;;;;;18.30;12.05;;;;;;;-2.42;94.51;101017.72;635174;221;33064;-75
2021/01/11 03:56:15;;;;;;;19.50;11.20;;;;;;;-2.89;95.96;101020.73;640667;222;23673;-75
2021/01/11 03:58:42;;;;;;;16.93;11.73;;;;;;;-2.61;94.97;101022.11;639339;222;32770;-74
2021/01/11 04:01:10;;;;;;;19.00;12.58;;;;;;;-2.40;93.66;101012.14;635289;221;32774;-75
2021/01/11 04:03:38;;;;;;;16.07;9.80;;;;;;;-2.93;95.39;101019.98;651110;218;23673;-74
2021/01/11 04:06:07;;;;;;;19.00;12.07;;;;;;;-2.44;94.55;101013.55;637515;221;32759;-74
2021/01/11 04:08:34;;;;;;;15.20;10.20;;;;;;;-2.73;94.66;101015.63;646499;219;23667;-74
2021/01/11 04:11:02;;;;;;;17.98;11.90;;;;;;;-2.48;93.66;101004.34;636165;221;32751;-74
2021/01/11 04:13:30;;;;;;;16.52;11.55;;;;;;;-2.59;92.54;101002.09;636414;221;32784;-74
2021/01/11 04:15:58;;;;;;;18.40;10.93;;;;;;;-3.27;93.97;101011.09;659163;217;23641;-74
2021/01/11 04:18:26;;;;;;;16.75;11.90;;;;;;;-2.96;93.84;101012.41;636333;222;32801;-75
2021/01/11 04:20:54;;;;;;;19.60;13.03;;;;;;;-2.94;93.01;101014.50;636396;222;32773;-74
2021/01/11 04:23:22;;;;;;;16.33;10.57;;;;;;;-3.57;94.81;101019.45;645618;221;26873;-74
2021/01/11 04:25:51;;;;;;;20.57;13.00;;;;;;;-3.17;94.91;101023.98;643503;218;32595;-74
2021/01/11 04:28:18;;;;;;;16.57;11.65;;;;;;;-3.04;94.24;101025.34;632101;221;32971;-74
2021/01/11 04:30:46;;;;;;;17.20;10.67;;;;;;;-3.49;95.83;101031.56;642015;222;23662;-74
2021/01/11 04:33:15;;;;;;;17.57;11.75;;;;;;;-3.08;95.91;101035.20;635560;222;32796;-74
2021/01/11 04:35:43;;;;;;;18.15;12.40;;;;;;;-2.97;94.94;101026.45;637832;220;43829;-75
2021/01/11 04:38:11;;;;;;;20.57;11.67;;;;;;;-3.47;96.71;101027.27;642226;222;23664;-75
2021/01/11 04:40:39;;;;;;;14.85;11.45;;;;;;;-3.05;96.52;101026.66;631666;221;32783;-74
2021/01/11 04:43:08;;;;;;;19.00;12.65;;;;;;;-2.74;95.26;101027.96;635813;222;32762;-74
2021/01/11 04:45:39;;;;;;;15.73;10.43;;;;;;;-3.23;96.89;101034.76;651944;217;25859;-74
2021/01/11 04:48:08;;;;;;;19.30;12.15;;;;;;;-2.96;97.27;101033.20;634487;222;32735;-74
2021/01/11 04:50:35;;;;;;;16.50;10.70;;;;;;;-3.34;97.75;101042.64;650448;217;23919;-74
2021/01/11 04:53:07;;;;;;;17.35;11.63;;;;;;;-3.11;97.74;101044.16;650667;215;32655;-77
2021/01/11 04:55:37;;;;;;;18.80;12.15;;;;;;;-2.90;96.62;101040.26;646108;217;32587;-74
2021/01/11 04:58:07;;;;;;;15.37;10.23;;;;;;;-3.24;97.30;101047.05;654570;217;23651;-75
2021/01/11 05:00:35;;;;;;;17.52;12.00;;;;;;;-2.99;97.25;101048.95;645909;217;33432;-74
2021/01/11 05:03:03;;;;;;;16.80;11.73;;;;;;;-2.86;96.56;101042.28;648520;217;32628;-73
2021/01/11 05:05:31;;;;;;;16.90;10.60;;;;;;;-3.24;97.22;101045.34;656379;217;23628;-75
2021/01/11 05:07:59;;;;;;;18.40;11.60;;;;;;;-3.02;97.34;101045.22;649439;217;32621;-74
2021/01/11 05:10:27;;;;;;;18.80;12.47;;;;;;;-2.92;96.77;101039.47;651666;217;32606;-74
2021/01/11 05:12:56;;;;;;;17.50;10.40;;;;;;;-3.38;97.42;101043.16;661447;217;23636;-74
2021/01/11 05:15:25;;;;;;;16.37;11.65;;;;;;;-2.91;97.11;101037.76;651788;217;32652;-74
2021/01/11 05:17:53;;;;;;;19.30;12.50;;;;;;;-2.61;95.62;101035.67;653205;217;43294;-74
2021/01/11 05:20:21;;;;;;;14.43;9.67;;;;;;;-3.16;95.88;101036.27;655280;217;23656;-75
2021/01/11 05:22:49;;;;;;;16.60;11.20;;;;;;;-2.82;94.89;101031.97;643375;217;32608;-74
2021/01/11 05:25:17;;;;;;;17.20;11.60;;;;;;;-2.73;93.72;101022.83;653963;217;32739;-74
2021/01/11 05:27:45;;;;;;;14.80;9.70;;;;;;;-3.28;94.94;101029.77;654039;217;24751;-75
2021/01/11 05:30:16;;;;;;;16.02;10.90;;;;;;;-3.01;95.42;101029.52;648690;217;32591;-75
2021/01/11 05:32:44;;;;;;;15.47;10.50;;;;;;;-2.99;94.04;101023.50;643846;217;32880;-72
2021/01/11 05:35:13;;;;;;;17.50;11.05;;;;;;;-3.04;95.03;101023.23;646401;217;32641;-73
2021/01/11 05:37:42;;;;;;;17.67;11.55;;;;;;;-2.85;94.55;101022.31;651187;217;32645;-73
2021/01/11 05:40:11;;;;;;;17.43;9.90;;;;;;;-3.25;96.01;101032.22;638891;221;23677;-73
2021/01/11 05:42:39;;;;;;;18.45;10.90;;;;;;;-2.83;95.17;101023.10;653643;217;32668;-73
2021/01/11 05:45:11;;;;;;;17.40;12.23;;;;;;;-2.65;94.97;101023.91;638194;220;35245;-73
2021/01/11 05:47:57;;;;;;;17.33;9.70;;;;;;;-3.45;96.60;101025.52;641258;222;24786;-72
2021/01/11 05:50:26;;;;;;;18.15;11.00;;;;;;;-3.02;96.44;101017.23;641282;221;32878;-72
2021/01/11 05:52:54;;;;;;;17.27;11.73;;;;;;;-2.71;94.71;101010.89;645426;217;32639;-73
2021/01/11 05:55:22;;;;;;;14.27;9.00;;;;;;;-3.30;95.54;101012.44;635887;222;23725;-73
2021/01/11 05:57:54;;;;;;;16.97;10.30;;;;;;;-2.93;95.11;101012.80;637068;221;32730;-73
2021/01/11 06:00:24;;;;;;;16.50;11.55;;;;;;;-2.85;93.62;100998.97;638960;222;32851;-75
2021/01/11 06:02:51;;;;;;;14.07;9.33;;;;;;;-3.40;94.28;101009.72;642969;222;23669;-72
2021/01/11 06:05:19;;;;;;;16.32;11.90;;;;;;;-2.95;93.71;101004.37;650995;216;32574;-72
2021/01/11 06:07:47;;;;;;;16.10;11.70;;;;;;;-2.88;92.57;100999.50;648033;217;33102;-76
2021/01/11 06:10:15;;;;;;;15.90;10.37;;;;;;;-3.49;93.01;101003.59;646807;221;23647;-73
2021/01/11 06:12:43;;;;;;;18.32;13.10;;;;;;;-3.07;92.29;101004.24;635547;221;33049;-73
2021/01/11 06:15:12;;;;;;;19.90;13.10;;;;;;;-2.79;91.73;100995.01;626009;222;33000;-73
2021/01/11 06:17:40;;;;;;;17.60;10.60;;;;;;;-3.39;92.85;101002.48;639352;221;23714;-73
2021/01/11 06:20:09;;;;;;;14.80;10.75;;;;;;;-3.09;92.14;101001.74;641360;221;32797;-73
2021/01/11 06:23:02;;;;;;;16.27;11.83;;;;;;;-3.26;90.78;100992.84;637257;221;32815;-76
2021/01/11 06:25:35;;;;;;;15.90;11.43;;;;;;;-3.24;90.90;100993.20;634056;221;33148;-73
2021/01/11 06:28:03;;;;;;;17.30;10.60;;;;;;;-3.73;92.44;101002.46;641059;220;23695;-73
2021/01/11 06:30:36;;;;;;;15.75;11.60;;;;;;;-3.23;93.16;100995.34;642946;221;32775;-73
2021/01/11 06:33:07;;;;;;;16.73;12.10;;;;;;;-3.16;91.95;100997.67;638173;220;32794;-73
2021/01/11 06:35:35;;;;;;;14.83;10.13;;;;;;;-3.85;93.81;101002.30;647171;221;23673;-73
2021/01/11 06:38:06;;;;;;;16.50;11.45;;;;;;;-3.56;93.74;101001.62;639864;221;32764;-73
2021/01/11 06:40:35;;;;;;;17.60;11.73;;;;;;;-3.38;93.56;101010.10;633876;222;43520;-73
2021/01/11 06:43:03;;;;;;;17.80;10.87;;;;;;;-3.82;95.36;101021.28;643360;221;23671;-73
2021/01/11 06:45:37;;;;;;;16.35;11.28;;;;;;;-3.42;94.89;101027.98;635078;222;32727;-73
2021/01/11 06:48:05;;;;;;;16.00;11.00;;;;;;;-3.25;93.41;101023.32;621407;225;33028;-74
2021/01/11 06:50:33;;;;;;;18.10;10.20;;;;;;;-3.62;94.73;101033.55;639265;221;24824;-73
2021/01/11 06:53:01;;;;;;;20.00;11.93;;;;;;;-3.20;94.23;101029.15;641960;222;32581;-73
2021/01/11 06:55:30;;;;;;;18.70;13.03;;;;;;;-3.26;94.50;101025.91;635596;222;32756;-73
2021/01/11 06:57:58;;;;;;;17.10;10.73;;;;;;;-3.67;96.90;101034.91;648516;218;23667;-73
2021/01/11 07:00:29;;;;;;;19.75;12.70;;;;;;;-3.53;98.25;101036.30;639620;222;32864;-73
2021/01/11 07:02:57;;;;;;;19.42;13.10;;;;;;;-3.45;97.75;101030.61;647732;219;43305;-72
2021/01/11 07:05:36;;;;;;;16.83;11.20;;;;;;;-3.87;98.83;101034.97;656462;219;25855;-73
2021/01/11 07:08:04;;;;;;;16.23;11.90;;;;;;;-3.41;97.65;101039.83;634869;222;32803;-73
2021/01/11 07:10:32;;;;;;;16.67;12.45;;;;;;;-3.16;96.98;101042.18;639401;222;32812;-76
2021/01/11 07:13:24;;;;;;;16.97;12.20;;;;;;;-3.47;96.81;101038.28;650375;217;23648;-73
2021/01/11 07:16:13;;;;;;;17.57;12.07;;;;;;;-3.10;95.84;101035.66;637606;219;34535;-73
2021/01/11 07:18:48;;;;;;;17.82;12.33;;;;;;;-3.03;94.38;101032.10;631542;221;32776;-73
2021/01/11 07:21:16;;;;;;;16.70;10.90;;;;;;;-3.74;94.85;101042.28;638327;221;23712;-73
2021/01/11 07:23:44;;;;;;;18.17;11.80;;;;;;;-3.50;94.87;101040.06;635518;221;33300;-75
2021/01/11 07:26:12;;;;;;;22.50;15.13;;;;;;;-3.48;93.41;101035.34;631974;221;32770;-73
2021/01/11 07:28:40;;;;;;;17.90;11.53;;;;;;;-3.73;95.47;101041.41;642431;221;23661;-73
2021/01/11 07:31:08;;;;;;;17.92;12.50;;;;;;;-3.29;94.72;101044.19;643795;218;32717;-73
2021/01/11 07:33:36;;;;;;;18.48;12.82;;;;;;;-3.15;93.71;101032.41;639528;218;43301;-73
2021/01/11 07:36:04;;;;;;;17.60;11.03;;;;;;;-3.49;94.41;101038.75;649256;219;23634;-73
2021/01/11 07:38:32;;;;;;;19.12;13.15;;;;;;;-3.03;93.42;101033.37;637933;221;33062;-73
2021/01/11 07:41:00;;;;;;;17.77;12.50;;;;;;;-2.89;93.06;101029.64;641662;220;32773;-73
2021/01/11 07:43:28;;;;;;;16.63;12.10;;;;;;;-3.14;92.41;101024.34;642168;222;27957;-73
2021/01/11 07:46:03;;;;;;;22.00;14.00;;;;;;;-2.75;90.81;101012.30;632728;221;32795;-73
2021/01/11 07:48:31;;;;;;;22.00;14.73;;;;;;;-2.70;90.43;101007.47;633665;221;43472;-73
2021/01/11 07:51:07;;;;;;;16.53;10.47;;;;;;;-3.54;91.57;101029.11;641504;222;23688;-73
2021/01/11 07:53:38;;;;;;;16.90;11.83;;;;;;;-3.20;91.61;101036.78;640635;218;32631;-73
2021/01/11 07:56:08;;;;;;;17.27;11.48;;;;;;;-2.99;91.12;101021.40;638994;221;32771;-73
2021/01/11 07:58:36;;;;;;;19.67;10.93;;;;;;;-3.52;92.04;101021.44;642355;220;27890;-73
2021/01/11 08:01:04;;;;;;;16.73;11.70;;;;;;;-2.95;91.47;101026.00;632340;221;33092;-73
2021/01/11 08:03:33;;;;;;;17.20;12.20;;;;;;;-2.77;90.54;101024.23;637469;221;33024;-75
2021/01/11 08:06:03;;;;;;;16.60;10.93;;;;;;;-3.00;91.62;101028.20;638917;222;23670;-73
2021/01/11 08:08:33;;;;;;;18.50;12.58;;;;;;;-2.70;89.82;101017.65;631841;221;32859;-73
2021/01/11 08:11:01;;;;;;;16.93;12.30;;;;;;;-2.59;90.12;101020.34;636815;221;32763;-76
2021/01/11 08:13:29;;;;;;;18.83;12.53;;;;;;;-2.97;90.79;101025.17;646611;222;23634;-73
2021/01/11 08:16:09;;;;;;;19.40;13.00;;;;;;;-2.66;90.81;101024.79;640231;222;32748;-75
2021/01/11 08:18:37;;;;;;;16.90;12.58;;;;;;;-2.34;89.56;101020.06;640067;221;32846;-73
2021/01/11 08:21:07;;;;;;;20.93;13.47;;;;;;;-2.81;90.77;101019.67;628786;226;23705;-73
2021/01/11 08:23:35;;;;;;;21.93;14.40;;;;;;;-2.29;90.73;101021.20;639809;222;32722;-73
2021/01/11 08:26:03;;;;;;;19.85;13.68;;;;;;;-2.23;90.15;101028.69;635701;222;32710;-73
2021/01/11 08:28:32;;;;;;;21.57;13.70;;;;;;;-2.65;91.19;101035.36;643892;221;23671;-73
2021/01/11 08:31:01;;;;;;;23.20;14.83;;;;;;;-2.29;91.66;101041.14;644206;218;33539;-73
2021/01/11 08:33:29;;;;;;;20.65;14.40;;;;;;;-2.00;90.89;101040.73;638319;221;43757;-73
2021/01/11 08:36:07;;;;;;;25.50;13.37;;;;;;;-2.50;91.48;101047.67;646709;220;26830;-73
2021/01/11 08:38:47;;;;;;;21.52;14.47;;;;;;;-2.12;92.10;101054.22;637282;222;32728;-73
2021/01/11 08:41:15;;;;;;;24.60;16.55;;;;;;;-1.47;90.25;101042.10;621772;225;32957;-73
2021/01/11 08:43:43;;;;;;;23.10;13.33;;;;;;;-1.83;91.71;101046.16;639766;221;23652;-73
2021/01/11 08:46:11;;;;;;;21.20;14.90;;;;;;;-1.37;89.98;101054.53;638670;221;32733;-73
2021/01/11 08:48:39;;;;;;;21.87;15.78;;;;;;;-1.20;90.10;101048.44;633112;221;32707;-73
2021/01/11 08:51:07;;;;;;;20.23;14.97;;;;;;;-1.37;90.67;101054.97;641750;221;23690;-73
2021/01/11 08:53:40;;;;;;;21.95;14.98;;;;;;;-1.03;89.26;101049.15;642027;221;32606;-73
2021/01/11 08:56:07;;;;;;;24.55;17.10;;;;;;;-0.88;88.01;101039.31;640609;221;32974;-73
2021/01/11 08:58:34;;;;;;;20.00;14.93;;;;;;;-1.17;89.61;101045.38;648876;221;24265;-73
2021/01/11 09:01:09;;;;;;;23.00;16.32;;;;;;;-0.48;87.10;101037.04;637583;221;32692;-72
2021/01/11 09:03:42;;;;;;;22.52;16.12;;;;;;;-0.49;86.31;101019.22;649321;217;32603;-75
2021/01/11 09:06:10;;;;;;;25.73;15.53;;;;;;;-0.95;87.08;101029.77;660061;217;23653;-73
2021/01/11 09:08:38;;;;;;;27.00;17.80;;;;;;;-0.52;85.55;101021.44;648136;217;32613;-73
2021/01/11 09:11:10;;;;;;;22.48;15.95;;;;;;;-0.36;86.37;101024.28;647284;217;32663;-73
2021/01/11 09:13:37;;;;;;;21.93;13.13;;;;;;;-0.78;86.98;101024.91;653774;217;24760;-75
2021/01/11 09:16:11;;;;;;;18.62;13.68;;;;;;;-0.36;86.78;101039.61;643025;217;32608;-75
2021/01/11 09:18:39;;;;;;;19.35;14.10;;;;;;;-0.31;87.05;101042.81;643281;217;32605;-75
2021/01/11 09:21:07;;;;;;;20.17;13.10;;;;;;;-0.44;87.17;101048.81;651775;217;23670;-73
2021/01/11 09:23:35;;;;;;;19.85;13.78;;;;;;;-0.13;85.75;101043.89;648544;217;32554;-73
2021/01/11 09:26:03;;;;;;;17.87;12.88;;;;;;;0.06;85.42;101037.64;645127;217;32737;-73
2021/01/11 09:28:31;;;;;;;18.83;12.37;;;;;;;-0.16;86.09;101052.48;660993;217;23671;-73
2021/01/11 09:30:59;;;;;;;18.55;13.03;;;;;;;-0.20;84.41;101053.94;651162;217;33007;-73
2021/01/11 09:33:27;;;;;;;18.97;13.03;;;;;;;-0.26;84.12;101050.34;659840;217;23623;-73
2021/01/11 09:35:55;;;;;;;17.02;12.88;;;;;;;0.07;84.49;101042.69;651540;217;32609;-73
2021/01/11 09:38:23;;;;;;;19.45;13.83;;;;;;;0.49;82.86;101039.37;648384;217;32693;-73
2021/01/11 09:40:51;;;;;;;16.73;11.57;;;;;;;0.23;82.57;101034.81;661374;217;23662;-73
2021/01/11 09:43:19;;;;;;;18.52;13.15;;;;;;;0.39;81.33;101023.53;655903;217;32594;-75
2021/01/11 09:45:47;;;;;;;15.67;11.63;;;;;;;0.05;82.63;101036.80;655887;217;23632;-73
2021/01/11 09:48:14;;;;;;;19.15;13.55;;;;;;;0.32;82.57;101027.24;648488;217;32633;-73
2021/01/11 09:50:42;;;;;;;19.30;11.70;;;;;;;0.11;83.89;101026.77;660722;217;23675;-73
2021/01/11 09:53:11;;;;;;;19.80;14.30;;;;;;;0.39;82.44;101022.25;653910;217;32619;-73
2021/01/11 09:55:38;;;;;;;20.68;13.10;;;;;;;0.37;83.16;101021.94;646229;217;32651;-73
2021/01/11 09:58:06;;;;;;;20.30;13.33;;;;;;;-0.05;84.17;101031.64;656242;217;23635;-73
2021/01/11 10:00:34;;;;;;;20.90;14.00;;;;;;;0.63;83.40;101029.86;645117;217;32946;-73
2021/01/11 10:03:02;;;;;;;18.73;12.27;;;;;;;0.42;83.73;101034.92;654155;217;23638;-73
2021/01/11 10:05:30;;;;;;;21.65;14.45;;;;;;;0.62;83.11;101030.76;647628;217;43450;-73
2021/01/11 10:07:58;;;;;;;17.67;12.43;;;;;;;0.29;84.75;101032.48;661746;217;23646;-73
2021/01/11 10:10:26;;;;;;;17.75;13.78;;;;;;;0.81;82.59;101036.78;650573;217;32629;-73
2021/01/11 10:12:54;;;;;;;18.83;12.77;;;;;;;-0.13;83.67;101034.94;659024;217;24665;-72
2021/01/11 10:15:22;;;;;;;17.82;12.95;;;;;;;0.17;85.11;101055.52;645360;217;32609;-73
2021/01/11 10:17:50;;;;;;;17.37;12.28;;;;;;;0.42;83.40;101032.36;647026;217;32700;-73
2021/01/11 10:20:19;;;;;;;18.43;12.13;;;;;;;0.73;82.89;101027.33;652281;217;24063;-73
2021/01/11 10:22:47;;;;;;;19.27;13.40;;;;;;;1.21;82.29;101017.20;651000;217;32617;-73
2021/01/11 10:25:17;;;;;;;18.60;11.37;;;;;;;0.75;82.47;101026.36;658587;217;23644;-73
2021/01/11 10:27:43;;;;;;;15.80;11.65;;;;;;;0.41;82.86;101020.91;649963;217;32602;-73
2021/01/11 10:30:11;;;;;;;17.60;11.77;;;;;;;0.43;83.30;101023.83;653356;217;23661;-73
2021/01/11 10:32:40;;;;;;;17.00;12.70;;;;;;;0.85;83.27;101016.58;646448;217;33294;-73
2021/01/11 10:35:09;;;;;;;17.27;12.47;;;;;;;1.08;81.35;101006.64;643000;217;32856;-73
2021/01/11 10:37:36;;;;;;;17.67;12.43;;;;;;;0.21;83.05;101015.31;653147;217;32639;-73
2021/01/11 10:40:06;;;;;;;19.03;12.70;;;;;;;0.38;84.81;101019.31;651587;217;23874;-73
2021/01/11 10:42:35;;;;;;;17.80;12.10;;;;;;;0.63;83.00;101019.63;651135;217;32664;-73
2021/01/11 10:45:03;;;;;;;17.40;11.90;;;;;;;0.13;83.93;101019.87;655018;217;26899;-73
2021/01/11 10:47:31;;;;;;;17.80;12.50;;;;;;;0.52;83.79;101026.00;652249;217;32628;-73
2021/01/11 10:49:59;;;;;;;19.62;12.70;;;;;;;0.77;83.50;101019.45;649199;216;32598;-73
2021/01/11 10:52:27;;;;;;;21.47;12.63;;;;;;;0.79;82.76;101020.66;661566;217;23861;-73
2021/01/11 10:54:55;;;;;;;17.65;12.40;;;;;;;1.49;80.40;101008.24;644021;217;32975;-73
2021/01/11 10:57:23;;;;;;;15.70;12.30;;;;;;;1.31;81.16;100997.98;653528;217;23657;-73
2021/01/11 10:59:51;;;;;;;22.32;14.20;;;;;;;1.93;80.20;100995.59;647058;217;32620;-73
2021/01/11 11:02:19;;;;;;;20.20;12.67;;;;;;;1.56;80.44;100992.16;655046;217;23646;-73
2021/01/11 11:04:47;;;;;;;18.35;13.25;;;;;;;1.75;79.62;100992.16;650754;217;32587;-73
2021/01/11 11:07:15;;;;;;;16.23;10.80;;;;;;;0.83;79.40;100981.23;652041;217;23681;-73
2021/01/11 11:09:43;;;;;;;16.70;11.38;;;;;;;1.07;80.20;100983.20;654749;217;32667;-73
2021/01/11 11:12:11;;;;;;;16.32;12.50;;;;;;;1.48;79.93;100980.13;645668;217;32610;-72
2021/01/11 11:14:39;;;;;;;19.70;11.37;;;;;;;1.15;80.07;100981.16;653382;217;24817;-73
2021/01/11 11:17:13;;;;;;;15.63;9.90;;;;;;;1.18;80.34;100981.02;639369;221;26026;-73